Portland, Oregon
Traffic Map
Current Weather Conditions
Portland, Oregon
Broken Clouds
Broken Clouds
49°
Feels Like: 46°
Wind Chill: 46° Ceiling: 8000
Heat Index: 49° Visibility: 10mi
Dew Point: 44° Wind: 7mph
Humidity: 83% Direction: 220° (SW)
Pressure: 30.19in Gusts: 0mph
Raw Report DataKPDX 190653Z 22006KT 10SM BKN080 BKN100 BKN120 09/07 A3019 RMK AO2 SLP223 T00940067
Traffic Incident Summary
Active as of:
Severity:
Category:
InformationThere was an issue retrieving the traffic information for this location. Please try a different location or try again shortly.
Advertisements